sensor_id;sensor_type;location;lat;lon;timestamp;P1;durP1;ratioP1;P2;durP2;ratioP2
18162;SDS011;9206;50.994;4.538;2022-12-10T00:00:39;35.17;;;17.47;;
18162;SDS011;9206;50.994;4.538;2022-12-10T00:03:29;39.50;;;19.63;;
18162;SDS011;9206;50.994;4.538;2022-12-10T00:06:23;40.97;;;18.80;;
18162;SDS011;9206;50.994;4.538;2022-12-10T00:09:17;44.77;;;19.43;;
18162;SDS011;9206;50.994;4.538;2022-12-10T00:12:09;37.07;;;19.33;;
18162;SDS011;9206;50.994;4.538;2022-12-10T00:15:04;43.70;;;20.30;;
18162;SDS011;9206;50.994;4.538;2022-12-10T00:17:55;37.97;;;19.57;;
18162;SDS011;9206;50.994;4.538;2022-12-10T00:20:44;45.83;;;21.23;;
18162;SDS011;9206;50.994;4.538;2022-12-10T00:23:33;35.23;;;18.10;;
18162;SDS011;9206;50.994;4.538;2022-12-10T00:26:22;35.80;;;19.37;;
18162;SDS011;9206;50.994;4.538;2022-12-10T00:32:04;37.47;;;19.27;;
18162;SDS011;9206;50.994;4.538;2022-12-10T00:34:51;41.80;;;20.93;;
18162;SDS011;9206;50.994;4.538;2022-12-10T00:37:39;43.23;;;19.93;;
18162;SDS011;9206;50.994;4.538;2022-12-10T00:40:27;46.97;;;21.43;;
18162;SDS011;9206;50.994;4.538;2022-12-10T00:43:14;45.10;;;21.13;;
18162;SDS011;9206;50.994;4.538;2022-12-10T00:48:59;48.20;;;21.40;;
18162;SDS011;9206;50.994;4.538;2022-12-10T00:52:00;52.00;;;22.27;;
18162;SDS011;9206;50.994;4.538;2022-12-10T00:54:57;51.50;;;23.63;;
18162;SDS011;9206;50.994;4.538;2022-12-10T00:57:45;49.73;;;21.60;;
18162;SDS011;9206;50.994;4.538;2022-12-10T01:00:35;43.33;;;20.13;;
18162;SDS011;9206;50.994;4.538;2022-12-10T01:03:25;51.33;;;23.10;;
18162;SDS011;9206;50.994;4.538;2022-12-10T01:06:14;51.37;;;23.43;;
18162;SDS011;9206;50.994;4.538;2022-12-10T01:09:06;47.90;;;22.90;;
18162;SDS011;9206;50.994;4.538;2022-12-10T01:11:56;51.10;;;23.70;;
18162;SDS011;9206;50.994;4.538;2022-12-10T01:14:52;56.33;;;23.80;;
18162;SDS011;9206;50.994;4.538;2022-12-10T01:17:45;53.13;;;23.00;;
18162;SDS011;9206;50.994;4.538;2022-12-10T01:20:34;56.87;;;23.20;;
18162;SDS011;9206;50.994;4.538;2022-12-10T01:23:29;60.83;;;24.60;;
18162;SDS011;9206;50.994;4.538;2022-12-10T01:26:21;55.43;;;21.90;;
18162;SDS011;9206;50.994;4.538;2022-12-10T01:29:11;56.40;;;24.13;;
18162;SDS011;9206;50.994;4.538;2022-12-10T01:32:01;50.20;;;22.83;;
18162;SDS011;9206;50.994;4.538;2022-12-10T01:34:55;54.13;;;23.37;;
18162;SDS011;9206;50.994;4.538;2022-12-10T01:37:43;58.57;;;23.93;;
18162;SDS011;9206;50.994;4.538;2022-12-10T01:40:36;58.00;;;23.77;;
18162;SDS011;9206;50.994;4.538;2022-12-10T01:43:25;56.13;;;22.53;;
18162;SDS011;9206;50.994;4.538;2022-12-10T01:46:19;58.37;;;23.47;;
18162;SDS011;9206;50.994;4.538;2022-12-10T01:49:10;53.20;;;23.50;;
18162;SDS011;9206;50.994;4.538;2022-12-10T01:51:59;55.43;;;22.47;;
18162;SDS011;9206;50.994;4.538;2022-12-10T01:54:48;55.60;;;23.87;;
18162;SDS011;9206;50.994;4.538;2022-12-10T01:57:57;56.00;;;25.23;;
18162;SDS011;9206;50.994;4.538;2022-12-10T02:04:42;58.27;;;24.50;;
18162;SDS011;9206;50.994;4.538;2022-12-10T02:07:55;54.37;;;23.00;;
18162;SDS011;9206;50.994;4.538;2022-12-10T02:11:01;62.30;;;24.80;;
18162;SDS011;9206;50.994;4.538;2022-12-10T02:14:00;56.03;;;23.80;;
18162;SDS011;9206;50.994;4.538;2022-12-10T02:16:57;59.60;;;24.30;;
18162;SDS011;9206;50.994;4.538;2022-12-10T02:19:58;60.10;;;25.10;;
18162;SDS011;9206;50.994;4.538;2022-12-10T02:22:53;57.33;;;24.57;;
18162;SDS011;9206;50.994;4.538;2022-12-10T02:25:54;69.07;;;26.30;;
18162;SDS011;9206;50.994;4.538;2022-12-10T02:28:50;67.67;;;24.57;;
18162;SDS011;9206;50.994;4.538;2022-12-10T02:31:45;58.77;;;24.73;;
18162;SDS011;9206;50.994;4.538;2022-12-10T02:34:42;59.20;;;24.67;;
18162;SDS011;9206;50.994;4.538;2022-12-10T02:40:26;57.70;;;23.97;;
18162;SDS011;9206;50.994;4.538;2022-12-10T02:43:22;64.30;;;23.80;;
18162;SDS011;9206;50.994;4.538;2022-12-10T02:46:18;68.87;;;24.93;;
18162;SDS011;9206;50.994;4.538;2022-12-10T02:49:09;70.30;;;27.30;;
18162;SDS011;9206;50.994;4.538;2022-12-10T02:52:06;62.07;;;25.60;;
18162;SDS011;9206;50.994;4.538;2022-12-10T02:54:58;63.63;;;25.30;;
18162;SDS011;9206;50.994;4.538;2022-12-10T02:57:48;64.20;;;24.93;;
18162;SDS011;9206;50.994;4.538;2022-12-10T03:00:53;66.90;;;26.37;;
18162;SDS011;9206;50.994;4.538;2022-12-10T03:03:52;60.97;;;25.20;;
18162;SDS011;9206;50.994;4.538;2022-12-10T03:06:52;71.03;;;27.07;;
18162;SDS011;9206;50.994;4.538;2022-12-10T03:09:45;63.90;;;25.60;;
18162;SDS011;9206;50.994;4.538;2022-12-10T03:12:46;63.37;;;24.73;;
18162;SDS011;9206;50.994;4.538;2022-12-10T03:15:38;64.90;;;25.50;;
18162;SDS011;9206;50.994;4.538;2022-12-10T03:18:34;66.60;;;25.57;;
18162;SDS011;9206;50.994;4.538;2022-12-10T03:21:25;62.53;;;25.77;;
18162;SDS011;9206;50.994;4.538;2022-12-10T03:24:20;64.67;;;25.23;;
18162;SDS011;9206;50.994;4.538;2022-12-10T03:27:15;68.77;;;24.80;;
18162;SDS011;9206;50.994;4.538;2022-12-10T03:30:06;76.93;;;28.23;;
18162;SDS011;9206;50.994;4.538;2022-12-10T03:32:58;68.67;;;25.83;;
18162;SDS011;9206;50.994;4.538;2022-12-10T03:35:46;65.90;;;27.37;;
18162;SDS011;9206;50.994;4.538;2022-12-10T03:38:37;70.90;;;27.13;;
18162;SDS011;9206;50.994;4.538;2022-12-10T03:41:26;67.13;;;27.77;;
18162;SDS011;9206;50.994;4.538;2022-12-10T03:44:19;75.47;;;27.97;;
18162;SDS011;9206;50.994;4.538;2022-12-10T03:47:16;71.60;;;27.87;;
18162;SDS011;9206;50.994;4.538;2022-12-10T03:52:55;72.13;;;26.97;;
18162;SDS011;9206;50.994;4.538;2022-12-10T03:55:43;81.47;;;29.70;;
18162;SDS011;9206;50.994;4.538;2022-12-10T03:58:34;74.03;;;28.97;;
18162;SDS011;9206;50.994;4.538;2022-12-10T04:01:21;79.70;;;28.43;;
18162;SDS011;9206;50.994;4.538;2022-12-10T04:04:08;78.97;;;31.97;;
18162;SDS011;9206;50.994;4.538;2022-12-10T04:06:58;86.67;;;31.77;;
18162;SDS011;9206;50.994;4.538;2022-12-10T04:09:46;81.53;;;30.50;;
18162;SDS011;9206;50.994;4.538;2022-12-10T04:12:39;87.70;;;31.13;;
18162;SDS011;9206;50.994;4.538;2022-12-10T04:15:34;81.37;;;30.50;;
18162;SDS011;9206;50.994;4.538;2022-12-10T04:18:48;87.50;;;31.33;;
18162;SDS011;9206;50.994;4.538;2022-12-10T04:21:36;88.07;;;31.67;;
18162;SDS011;9206;50.994;4.538;2022-12-10T04:24:44;78.63;;;30.80;;
18162;SDS011;9206;50.994;4.538;2022-12-10T04:27:48;86.77;;;31.40;;
18162;SDS011;9206;50.994;4.538;2022-12-10T04:30:39;76.77;;;29.90;;
18162;SDS011;9206;50.994;4.538;2022-12-10T04:33:32;79.63;;;31.03;;
18162;SDS011;9206;50.994;4.538;2022-12-10T04:36:26;81.83;;;31.73;;
18162;SDS011;9206;50.994;4.538;2022-12-10T04:39:19;88.00;;;30.90;;
18162;SDS011;9206;50.994;4.538;2022-12-10T04:42:07;80.33;;;28.93;;
18162;SDS011;9206;50.994;4.538;2022-12-10T04:45:00;75.60;;;29.03;;
18162;SDS011;9206;50.994;4.538;2022-12-10T04:50:41;71.10;;;28.27;;
18162;SDS011;9206;50.994;4.538;2022-12-10T04:53:30;74.97;;;29.70;;
18162;SDS011;9206;50.994;4.538;2022-12-10T04:56:23;75.70;;;29.67;;
18162;SDS011;9206;50.994;4.538;2022-12-10T04:59:13;68.80;;;29.13;;
18162;SDS011;9206;50.994;4.538;2022-12-10T05:02:02;73.93;;;30.10;;
18162;SDS011;9206;50.994;4.538;2022-12-10T05:04:56;78.60;;;29.27;;
18162;SDS011;9206;50.994;4.538;2022-12-10T05:07:49;74.50;;;29.93;;
18162;SDS011;9206;50.994;4.538;2022-12-10T05:10:39;70.17;;;28.17;;
18162;SDS011;9206;50.994;4.538;2022-12-10T05:13:26;81.17;;;29.83;;
18162;SDS011;9206;50.994;4.538;2022-12-10T05:16:14;81.10;;;31.83;;
18162;SDS011;9206;50.994;4.538;2022-12-10T05:19:04;74.37;;;30.37;;
18162;SDS011;9206;50.994;4.538;2022-12-10T05:27:51;75.37;;;31.17;;
18162;SDS011;9206;50.994;4.538;2022-12-10T05:30:38;79.20;;;31.50;;
18162;SDS011;9206;50.994;4.538;2022-12-10T05:33:27;75.83;;;29.73;;
18162;SDS011;9206;50.994;4.538;2022-12-10T05:36:16;86.97;;;31.50;;
18162;SDS011;9206;50.994;4.538;2022-12-10T05:39:07;92.20;;;31.43;;
18162;SDS011;9206;50.994;4.538;2022-12-10T05:41:54;87.00;;;31.83;;
18162;SDS011;9206;50.994;4.538;2022-12-10T05:44:43;83.43;;;32.53;;
18162;SDS011;9206;50.994;4.538;2022-12-10T05:47:30;90.87;;;34.13;;
18162;SDS011;9206;50.994;4.538;2022-12-10T05:50:19;85.33;;;33.33;;
18162;SDS011;9206;50.994;4.538;2022-12-10T05:53:07;88.63;;;32.90;;
18162;SDS011;9206;50.994;4.538;2022-12-10T05:56:00;106.07;;;35.13;;
18162;SDS011;9206;50.994;4.538;2022-12-10T05:58:49;94.57;;;32.33;;
18162;SDS011;9206;50.994;4.538;2022-12-10T06:01:39;100.37;;;34.43;;
18162;SDS011;9206;50.994;4.538;2022-12-10T06:04:27;105.47;;;33.47;;
18162;SDS011;9206;50.994;4.538;2022-12-10T06:07:15;103.30;;;33.70;;
18162;SDS011;9206;50.994;4.538;2022-12-10T06:10:08;101.83;;;33.77;;
18162;SDS011;9206;50.994;4.538;2022-12-10T06:12:58;91.40;;;33.83;;
18162;SDS011;9206;50.994;4.538;2022-12-10T06:24:18;109.07;;;35.37;;
18162;SDS011;9206;50.994;4.538;2022-12-10T06:27:07;103.60;;;34.27;;
18162;SDS011;9206;50.994;4.538;2022-12-10T06:29:58;102.60;;;35.20;;
18162;SDS011;9206;50.994;4.538;2022-12-10T06:32:46;99.17;;;33.37;;
18162;SDS011;9206;50.994;4.538;2022-12-10T06:35:34;95.30;;;32.63;;
18162;SDS011;9206;50.994;4.538;2022-12-10T06:38:21;91.27;;;32.63;;
18162;SDS011;9206;50.994;4.538;2022-12-10T06:41:09;91.37;;;31.70;;
18162;SDS011;9206;50.994;4.538;2022-12-10T06:44:00;98.90;;;31.67;;
18162;SDS011;9206;50.994;4.538;2022-12-10T06:46:51;87.53;;;28.93;;
18162;SDS011;9206;50.994;4.538;2022-12-10T06:49:40;90.30;;;28.73;;
18162;SDS011;9206;50.994;4.538;2022-12-10T06:52:28;105.67;;;31.40;;
18162;SDS011;9206;50.994;4.538;2022-12-10T06:58:06;98.63;;;30.37;;
18162;SDS011;9206;50.994;4.538;2022-12-10T07:00:53;106.90;;;32.03;;
18162;SDS011;9206;50.994;4.538;2022-12-10T07:03:42;113.27;;;31.07;;
18162;SDS011;9206;50.994;4.538;2022-12-10T07:06:31;104.77;;;30.83;;
18162;SDS011;9206;50.994;4.538;2022-12-10T07:09:21;109.23;;;30.53;;
18162;SDS011;9206;50.994;4.538;2022-12-10T07:12:11;108.40;;;30.27;;
18162;SDS011;9206;50.994;4.538;2022-12-10T07:14:59;119.83;;;31.03;;
18162;SDS011;9206;50.994;4.538;2022-12-10T07:17:50;110.83;;;30.07;;
18162;SDS011;9206;50.994;4.538;2022-12-10T07:20:45;104.27;;;29.33;;
18162;SDS011;9206;50.994;4.538;2022-12-10T07:23:38;92.70;;;30.70;;
18162;SDS011;9206;50.994;4.538;2022-12-10T07:26:25;95.50;;;30.20;;
18162;SDS011;9206;50.994;4.538;2022-12-10T07:29:17;89.37;;;28.90;;
18162;SDS011;9206;50.994;4.538;2022-12-10T07:32:07;126.37;;;31.33;;
18162;SDS011;9206;50.994;4.538;2022-12-10T07:34:57;114.13;;;29.67;;
18162;SDS011;9206;50.994;4.538;2022-12-10T07:37:45;106.30;;;27.27;;
18162;SDS011;9206;50.994;4.538;2022-12-10T07:40:34;107.17;;;30.57;;
18162;SDS011;9206;50.994;4.538;2022-12-10T07:43:23;117.00;;;31.40;;
18162;SDS011;9206;50.994;4.538;2022-12-10T07:46:12;114.17;;;29.33;;
18162;SDS011;9206;50.994;4.538;2022-12-10T07:49:02;108.93;;;28.43;;
18162;SDS011;9206;50.994;4.538;2022-12-10T07:51:53;157.10;;;27.60;;
18162;SDS011;9206;50.994;4.538;2022-12-10T07:54:42;94.17;;;26.00;;
18162;SDS011;9206;50.994;4.538;2022-12-10T07:57:31;104.07;;;26.17;;
18162;SDS011;9206;50.994;4.538;2022-12-10T08:00:18;84.80;;;25.37;;
18162;SDS011;9206;50.994;4.538;2022-12-10T08:03:06;92.13;;;25.90;;
18162;SDS011;9206;50.994;4.538;2022-12-10T08:06:00;102.30;;;27.63;;
18162;SDS011;9206;50.994;4.538;2022-12-10T08:11:40;105.23;;;27.37;;
18162;SDS011;9206;50.994;4.538;2022-12-10T08:14:33;89.03;;;24.97;;
18162;SDS011;9206;50.994;4.538;2022-12-10T08:17:26;102.80;;;26.23;;
18162;SDS011;9206;50.994;4.538;2022-12-10T08:20:15;81.43;;;25.20;;
18162;SDS011;9206;50.994;4.538;2022-12-10T08:23:03;86.53;;;25.90;;
18162;SDS011;9206;50.994;4.538;2022-12-10T08:25:51;98.60;;;27.67;;
18162;SDS011;9206;50.994;4.538;2022-12-10T08:28:49;97.70;;;26.63;;
18162;SDS011;9206;50.994;4.538;2022-12-10T08:31:40;85.93;;;26.13;;
18162;SDS011;9206;50.994;4.538;2022-12-10T08:34:34;91.90;;;26.40;;
18162;SDS011;9206;50.994;4.538;2022-12-10T08:37:27;82.50;;;27.07;;
18162;SDS011;9206;50.994;4.538;2022-12-10T08:40:14;84.53;;;26.03;;
18162;SDS011;9206;50.994;4.538;2022-12-10T08:43:04;112.80;;;27.77;;
18162;SDS011;9206;50.994;4.538;2022-12-10T08:45:56;75.10;;;24.77;;
18162;SDS011;9206;50.994;4.538;2022-12-10T08:48:50;89.07;;;25.77;;
18162;SDS011;9206;50.994;4.538;2022-12-10T08:51:41;79.27;;;26.93;;
18162;SDS011;9206;50.994;4.538;2022-12-10T08:54:29;74.80;;;23.50;;
18162;SDS011;9206;50.994;4.538;2022-12-10T08:57:16;75.90;;;23.87;;
18162;SDS011;9206;50.994;4.538;2022-12-10T09:00:04;68.17;;;22.63;;
18162;SDS011;9206;50.994;4.538;2022-12-10T09:05:44;79.13;;;24.17;;
18162;SDS011;9206;50.994;4.538;2022-12-10T09:08:37;73.83;;;24.00;;
18162;SDS011;9206;50.994;4.538;2022-12-10T09:11:28;83.17;;;23.53;;
18162;SDS011;9206;50.994;4.538;2022-12-10T09:14:19;81.87;;;24.73;;
18162;SDS011;9206;50.994;4.538;2022-12-10T09:17:08;71.27;;;24.23;;
18162;SDS011;9206;50.994;4.538;2022-12-10T09:19:57;76.97;;;25.67;;
18162;SDS011;9206;50.994;4.538;2022-12-10T09:22:50;82.30;;;26.13;;
18162;SDS011;9206;50.994;4.538;2022-12-10T09:25:45;75.57;;;25.47;;
18162;SDS011;9206;50.994;4.538;2022-12-10T09:28:39;77.83;;;23.80;;
18162;SDS011;9206;50.994;4.538;2022-12-10T09:31:33;78.27;;;25.17;;
18162;SDS011;9206;50.994;4.538;2022-12-10T09:34:26;77.93;;;25.07;;
18162;SDS011;9206;50.994;4.538;2022-12-10T09:37:16;78.00;;;25.73;;
18162;SDS011;9206;50.994;4.538;2022-12-10T09:43:00;66.57;;;23.13;;
18162;SDS011;9206;50.994;4.538;2022-12-10T09:46:05;66.13;;;23.97;;
18162;SDS011;9206;50.994;4.538;2022-12-10T09:48:59;73.07;;;24.47;;
18162;SDS011;9206;50.994;4.538;2022-12-10T09:51:57;69.77;;;23.90;;
18162;SDS011;9206;50.994;4.538;2022-12-10T09:57:47;71.63;;;23.80;;
18162;SDS011;9206;50.994;4.538;2022-12-10T10:00:40;74.97;;;24.43;;
18162;SDS011;9206;50.994;4.538;2022-12-10T10:03:33;75.90;;;26.77;;
18162;SDS011;9206;50.994;4.538;2022-12-10T10:06:30;72.60;;;28.00;;
18162;SDS011;9206;50.994;4.538;2022-12-10T10:09:19;78.73;;;25.77;;
18162;SDS011;9206;50.994;4.538;2022-12-10T10:12:12;73.53;;;26.93;;
18162;SDS011;9206;50.994;4.538;2022-12-10T10:15:09;67.67;;;23.57;;
18162;SDS011;9206;50.994;4.538;2022-12-10T10:18:03;67.67;;;25.57;;
18162;SDS011;9206;50.994;4.538;2022-12-10T10:21:00;71.57;;;24.43;;
18162;SDS011;9206;50.994;4.538;2022-12-10T10:23:52;69.07;;;23.33;;
18162;SDS011;9206;50.994;4.538;2022-12-10T10:26:40;75.73;;;24.10;;
18162;SDS011;9206;50.994;4.538;2022-12-10T10:29:28;69.40;;;25.37;;
18162;SDS011;9206;50.994;4.538;2022-12-10T10:32:18;68.23;;;23.43;;
18162;SDS011;9206;50.994;4.538;2022-12-10T10:38:26;60.87;;;22.60;;
18162;SDS011;9206;50.994;4.538;2022-12-10T10:41:15;69.40;;;23.80;;
18162;SDS011;9206;50.994;4.538;2022-12-10T10:44:13;64.53;;;23.00;;
18162;SDS011;9206;50.994;4.538;2022-12-10T10:47:23;64.07;;;23.20;;
18162;SDS011;9206;50.994;4.538;2022-12-10T10:50:23;62.13;;;23.23;;
18162;SDS011;9206;50.994;4.538;2022-12-10T10:56:24;62.37;;;23.33;;
18162;SDS011;9206;50.994;4.538;2022-12-10T10:59:21;67.40;;;23.77;;
18162;SDS011;9206;50.994;4.538;2022-12-10T11:02:19;54.67;;;22.40;;
18162;SDS011;9206;50.994;4.538;2022-12-10T11:05:15;63.03;;;22.87;;
18162;SDS011;9206;50.994;4.538;2022-12-10T11:08:13;70.87;;;26.27;;
18162;SDS011;9206;50.994;4.538;2022-12-10T11:11:11;73.53;;;24.80;;
18162;SDS011;9206;50.994;4.538;2022-12-10T11:14:14;62.47;;;25.07;;
18162;SDS011;9206;50.994;4.538;2022-12-10T11:17:12;72.40;;;26.00;;
18162;SDS011;9206;50.994;4.538;2022-12-10T11:20:15;69.50;;;26.10;;
18162;SDS011;9206;50.994;4.538;2022-12-10T11:23:07;68.83;;;25.27;;
18162;SDS011;9206;50.994;4.538;2022-12-10T11:26:01;76.97;;;27.17;;
18162;SDS011;9206;50.994;4.538;2022-12-10T11:29:01;66.30;;;24.90;;
18162;SDS011;9206;50.994;4.538;2022-12-10T11:32:05;76.23;;;27.13;;
18162;SDS011;9206;50.994;4.538;2022-12-10T11:35:02;71.23;;;25.73;;
18162;SDS011;9206;50.994;4.538;2022-12-10T11:38:03;67.53;;;24.53;;
18162;SDS011;9206;50.994;4.538;2022-12-10T11:41:06;69.93;;;24.97;;
18162;SDS011;9206;50.994;4.538;2022-12-10T11:44:14;57.00;;;21.43;;
18162;SDS011;9206;50.994;4.538;2022-12-10T11:50:25;49.73;;;20.43;;
18162;SDS011;9206;50.994;4.538;2022-12-10T11:53:29;54.70;;;21.10;;
18162;SDS011;9206;50.994;4.538;2022-12-10T11:56:30;59.07;;;23.07;;
18162;SDS011;9206;50.994;4.538;2022-12-10T11:59:23;62.67;;;22.70;;
18162;SDS011;9206;50.994;4.538;2022-12-10T12:08:41;66.03;;;23.10;;
18162;SDS011;9206;50.994;4.538;2022-12-10T12:11:42;60.90;;;22.83;;
18162;SDS011;9206;50.994;4.538;2022-12-10T12:14:45;62.47;;;23.77;;
18162;SDS011;9206;50.994;4.538;2022-12-10T12:17:43;62.63;;;23.30;;
18162;SDS011;9206;50.994;4.538;2022-12-10T12:20:37;67.80;;;24.90;;
18162;SDS011;9206;50.994;4.538;2022-12-10T12:23:32;64.90;;;24.47;;
18162;SDS011;9206;50.994;4.538;2022-12-10T12:26:31;58.73;;;23.43;;
18162;SDS011;9206;50.994;4.538;2022-12-10T12:29:28;56.53;;;23.60;;
18162;SDS011;9206;50.994;4.538;2022-12-10T12:32:21;64.17;;;23.80;;
18162;SDS011;9206;50.994;4.538;2022-12-10T12:35:12;73.70;;;24.53;;
18162;SDS011;9206;50.994;4.538;2022-12-10T12:38:06;61.10;;;23.57;;
18162;SDS011;9206;50.994;4.538;2022-12-10T12:44:03;68.23;;;25.57;;
18162;SDS011;9206;50.994;4.538;2022-12-10T12:47:16;64.50;;;23.33;;
18162;SDS011;9206;50.994;4.538;2022-12-10T12:50:11;60.20;;;22.50;;
18162;SDS011;9206;50.994;4.538;2022-12-10T12:53:12;59.57;;;23.03;;
18162;SDS011;9206;50.994;4.538;2022-12-10T12:56:08;66.27;;;23.67;;
18162;SDS011;9206;50.994;4.538;2022-12-10T12:59:08;60.00;;;22.43;;
18162;SDS011;9206;50.994;4.538;2022-12-10T13:02:08;65.93;;;23.07;;
18162;SDS011;9206;50.994;4.538;2022-12-10T13:05:08;71.17;;;24.73;;
18162;SDS011;9206;50.994;4.538;2022-12-10T13:08:22;63.47;;;23.83;;
18162;SDS011;9206;50.994;4.538;2022-12-10T13:11:19;72.60;;;24.90;;
18162;SDS011;9206;50.994;4.538;2022-12-10T13:17:27;68.03;;;23.67;;
18162;SDS011;9206;50.994;4.538;2022-12-10T13:23:34;65.03;;;24.57;;
18162;SDS011;9206;50.994;4.538;2022-12-10T13:26:35;69.47;;;25.80;;
18162;SDS011;9206;50.994;4.538;2022-12-10T13:29:27;58.10;;;21.93;;
18162;SDS011;9206;50.994;4.538;2022-12-10T13:36:09;60.67;;;23.00;;
18162;SDS011;9206;50.994;4.538;2022-12-10T13:39:10;60.80;;;23.03;;
18162;SDS011;9206;50.994;4.538;2022-12-10T13:45:35;60.70;;;22.67;;
18162;SDS011;9206;50.994;4.538;2022-12-10T13:48:26;57.77;;;20.50;;
18162;SDS011;9206;50.994;4.538;2022-12-10T13:54:50;50.87;;;21.03;;
18162;SDS011;9206;50.994;4.538;2022-12-10T13:58:09;50.37;;;21.63;;
18162;SDS011;9206;50.994;4.538;2022-12-10T14:01:28;54.93;;;22.27;;
18162;SDS011;9206;50.994;4.538;2022-12-10T14:07:44;61.83;;;22.60;;
18162;SDS011;9206;50.994;4.538;2022-12-10T14:10:35;60.00;;;23.33;;
18162;SDS011;9206;50.994;4.538;2022-12-10T14:13:24;49.23;;;20.00;;
18162;SDS011;9206;50.994;4.538;2022-12-10T14:16:19;51.83;;;19.60;;
18162;SDS011;9206;50.994;4.538;2022-12-10T14:19:11;54.00;;;21.00;;
18162;SDS011;9206;50.994;4.538;2022-12-10T14:22:03;53.77;;;21.10;;
18162;SDS011;9206;50.994;4.538;2022-12-10T14:24:58;55.27;;;21.37;;
18162;SDS011;9206;50.994;4.538;2022-12-10T14:27:48;53.00;;;21.37;;
18162;SDS011;9206;50.994;4.538;2022-12-10T14:30:42;50.30;;;19.63;;
18162;SDS011;9206;50.994;4.538;2022-12-10T14:33:31;53.13;;;19.50;;
18162;SDS011;9206;50.994;4.538;2022-12-10T14:36:23;41.23;;;19.07;;
18162;SDS011;9206;50.994;4.538;2022-12-10T14:39:13;50.50;;;20.07;;
18162;SDS011;9206;50.994;4.538;2022-12-10T14:42:04;51.20;;;18.33;;
18162;SDS011;9206;50.994;4.538;2022-12-10T14:44:59;41.07;;;18.53;;
18162;SDS011;9206;50.994;4.538;2022-12-10T14:47:55;41.30;;;17.90;;
18162;SDS011;9206;50.994;4.538;2022-12-10T14:50:48;53.07;;;20.17;;
18162;SDS011;9206;50.994;4.538;2022-12-10T14:53:37;48.53;;;18.20;;
18162;SDS011;9206;50.994;4.538;2022-12-10T14:56:28;50.93;;;19.03;;
18162;SDS011;9206;50.994;4.538;2022-12-10T14:59:22;47.23;;;19.03;;
18162;SDS011;9206;50.994;4.538;2022-12-10T15:05:10;49.17;;;17.93;;
18162;SDS011;9206;50.994;4.538;2022-12-10T15:08:00;47.67;;;19.67;;
18162;SDS011;9206;50.994;4.538;2022-12-10T15:10:53;48.73;;;18.53;;
18162;SDS011;9206;50.994;4.538;2022-12-10T15:13:49;51.73;;;19.93;;
18162;SDS011;9206;50.994;4.538;2022-12-10T15:16:42;44.00;;;17.67;;
18162;SDS011;9206;50.994;4.538;2022-12-10T15:19:32;44.53;;;18.43;;
18162;SDS011;9206;50.994;4.538;2022-12-10T15:22:26;52.00;;;19.63;;
18162;SDS011;9206;50.994;4.538;2022-12-10T15:25:25;44.27;;;18.77;;
18162;SDS011;9206;50.994;4.538;2022-12-10T15:28:21;47.60;;;18.17;;
18162;SDS011;9206;50.994;4.538;2022-12-10T15:34:13;46.70;;;18.60;;
18162;SDS011;9206;50.994;4.538;2022-12-10T15:37:03;43.47;;;17.27;;
18162;SDS011;9206;50.994;4.538;2022-12-10T15:39:58;45.30;;;16.87;;
18162;SDS011;9206;50.994;4.538;2022-12-10T15:42:48;39.80;;;17.23;;
18162;SDS011;9206;50.994;4.538;2022-12-10T15:45:48;41.77;;;16.93;;
18162;SDS011;9206;50.994;4.538;2022-12-10T15:48:42;41.63;;;17.67;;
18162;SDS011;9206;50.994;4.538;2022-12-10T15:51:37;46.33;;;16.73;;
18162;SDS011;9206;50.994;4.538;2022-12-10T15:54:26;52.30;;;18.53;;
18162;SDS011;9206;50.994;4.538;2022-12-10T15:57:20;38.77;;;17.10;;
18162;SDS011;9206;50.994;4.538;2022-12-10T16:00:15;43.77;;;17.37;;
18162;SDS011;9206;50.994;4.538;2022-12-10T16:03:07;44.17;;;17.10;;
18162;SDS011;9206;50.994;4.538;2022-12-10T16:06:01;49.70;;;18.23;;
18162;SDS011;9206;50.994;4.538;2022-12-10T16:08:49;51.87;;;18.43;;
18162;SDS011;9206;50.994;4.538;2022-12-10T16:11:40;50.63;;;18.40;;
18162;SDS011;9206;50.994;4.538;2022-12-10T16:14:29;43.90;;;17.67;;
18162;SDS011;9206;50.994;4.538;2022-12-10T16:20:13;41.27;;;17.93;;
18162;SDS011;9206;50.994;4.538;2022-12-10T16:23:09;44.40;;;17.83;;
18162;SDS011;9206;50.994;4.538;2022-12-10T16:25:58;45.77;;;17.27;;
18162;SDS011;9206;50.994;4.538;2022-12-10T16:28:46;48.37;;;17.87;;
18162;SDS011;9206;50.994;4.538;2022-12-10T16:31:36;42.17;;;18.10;;
18162;SDS011;9206;50.994;4.538;2022-12-10T16:34:24;41.97;;;17.50;;
18162;SDS011;9206;50.994;4.538;2022-12-10T16:37:11;48.70;;;18.80;;
18162;SDS011;9206;50.994;4.538;2022-12-10T16:40:04;44.17;;;18.23;;
18162;SDS011;9206;50.994;4.538;2022-12-10T16:42:54;45.83;;;19.17;;
18162;SDS011;9206;50.994;4.538;2022-12-10T16:45:47;48.43;;;19.07;;
18162;SDS011;9206;50.994;4.538;2022-12-10T16:48:38;49.93;;;20.30;;
18162;SDS011;9206;50.994;4.538;2022-12-10T16:51:31;48.80;;;19.20;;
18162;SDS011;9206;50.994;4.538;2022-12-10T16:54:24;45.60;;;18.37;;
18162;SDS011;9206;50.994;4.538;2022-12-10T16:57:18;46.33;;;18.83;;
18162;SDS011;9206;50.994;4.538;2022-12-10T17:00:09;50.37;;;19.20;;
18162;SDS011;9206;50.994;4.538;2022-12-10T17:03:01;41.67;;;17.53;;
18162;SDS011;9206;50.994;4.538;2022-12-10T17:05:52;42.77;;;18.93;;
18162;SDS011;9206;50.994;4.538;2022-12-10T17:08:44;49.47;;;19.43;;
18162;SDS011;9206;50.994;4.538;2022-12-10T17:11:35;50.40;;;19.30;;
18162;SDS011;9206;50.994;4.538;2022-12-10T17:14:36;50.40;;;19.03;;
18162;SDS011;9206;50.994;4.538;2022-12-10T17:17:27;44.93;;;18.43;;
18162;SDS011;9206;50.994;4.538;2022-12-10T17:20:15;48.60;;;18.60;;
18162;SDS011;9206;50.994;4.538;2022-12-10T17:23:04;46.73;;;19.87;;
18162;SDS011;9206;50.994;4.538;2022-12-10T17:29:04;38.03;;;16.87;;
18162;SDS011;9206;50.994;4.538;2022-12-10T17:31:55;44.57;;;18.37;;
18162;SDS011;9206;50.994;4.538;2022-12-10T17:34:44;46.73;;;19.10;;
18162;SDS011;9206;50.994;4.538;2022-12-10T17:37:32;36.10;;;18.63;;
18162;SDS011;9206;50.994;4.538;2022-12-10T17:40:21;45.33;;;18.60;;
18162;SDS011;9206;50.994;4.538;2022-12-10T17:43:09;47.27;;;19.87;;
18162;SDS011;9206;50.994;4.538;2022-12-10T17:45:58;49.80;;;19.63;;
18162;SDS011;9206;50.994;4.538;2022-12-10T17:48:45;44.37;;;19.27;;
18162;SDS011;9206;50.994;4.538;2022-12-10T17:51:44;50.17;;;19.87;;
18162;SDS011;9206;50.994;4.538;2022-12-10T17:54:37;48.20;;;20.73;;
18162;SDS011;9206;50.994;4.538;2022-12-10T17:57:25;47.07;;;20.33;;
18162;SDS011;9206;50.994;4.538;2022-12-10T18:00:16;38.97;;;19.73;;
18162;SDS011;9206;50.994;4.538;2022-12-10T18:03:05;44.47;;;19.23;;
18162;SDS011;9206;50.994;4.538;2022-12-10T18:05:53;43.27;;;19.80;;
18162;SDS011;9206;50.994;4.538;2022-12-10T18:08:43;53.37;;;21.10;;
18162;SDS011;9206;50.994;4.538;2022-12-10T18:11:34;40.50;;;20.07;;
18162;SDS011;9206;50.994;4.538;2022-12-10T18:14:27;39.30;;;19.40;;
18162;SDS011;9206;50.994;4.538;2022-12-10T18:17:15;38.83;;;20.00;;
18162;SDS011;9206;50.994;4.538;2022-12-10T18:20:05;44.57;;;20.50;;
18162;SDS011;9206;50.994;4.538;2022-12-10T18:22:57;49.53;;;20.43;;
18162;SDS011;9206;50.994;4.538;2022-12-10T18:25:52;41.83;;;19.70;;
18162;SDS011;9206;50.994;4.538;2022-12-10T18:28:48;37.13;;;20.73;;
18162;SDS011;9206;50.994;4.538;2022-12-10T18:31:38;46.63;;;21.43;;
18162;SDS011;9206;50.994;4.538;2022-12-10T18:34:31;42.57;;;19.97;;
18162;SDS011;9206;50.994;4.538;2022-12-10T18:37:21;44.37;;;19.73;;
18162;SDS011;9206;50.994;4.538;2022-12-10T18:40:16;44.93;;;21.70;;
18162;SDS011;9206;50.994;4.538;2022-12-10T18:43:07;41.37;;;19.93;;